Time;durP1;ratioP1;P1;durP2;ratioP2;P2;SDS_P1;SDS_P2;PMS_P1;PMS_P2;Temp;Humidity;BMP_temperature;BMP_pressure;BME280_temperature;BME280_humidity;BME280_pressure;Samples;Min_cycle;Max_cycle;Signal;HPM_P1;HPM_P2
2020/12/24 00:01:14;;;;;;;62.67;32.50;;;;;;;5.01;80.62;100809.23;127752;1091;104439;-74
2020/12/24 00:03:43;;;;;;;57.00;29.73;;;;;;;5.02;80.82;100806.73;127786;1091;104420;-74
2020/12/24 00:06:13;;;;;;;49.35;27.00;;;;;;;5.05;80.44;100811.24;127762;1091;104506;-74
2020/12/24 00:08:42;;;;;;;53.70;28.60;;;;;;;5.07;80.51;100824.34;127738;1093;104420;-75
2020/12/24 00:11:12;;;;;;;55.60;29.73;;;;;;;5.06;80.79;100828.62;127769;1093;104599;-75
2020/12/24 00:13:42;;;;;;;57.65;29.80;;;;;;;5.04;80.71;100835.44;127757;1091;104522;-75
2020/12/24 00:16:12;;;;;;;58.70;30.95;;;;;;;5.00;80.62;100826.56;127821;1092;104427;-73
2020/12/24 00:18:41;;;;;;;57.90;31.07;;;;;;;4.98;80.82;100830.74;127718;1091;104417;-73
2020/12/24 00:21:11;;;;;;;59.20;30.93;;;;;;;4.96;80.49;100834.95;127774;1092;104420;-75
2020/12/24 00:23:39;;;;;;;59.20;31.40;;;;;;;4.95;80.87;100830.55;127801;1091;104535;-75
2020/12/24 00:26:09;;;;;;;57.30;31.60;;;;;;;4.95;80.98;100824.45;127739;1091;104410;-75
2020/12/24 00:28:39;;;;;;;61.83;33.13;;;;;;;4.95;81.10;100819.26;127747;1092;104410;-72
2020/12/24 00:31:08;;;;;;;68.53;36.17;;;;;;;4.92;80.75;100822.55;127767;1092;104414;-74
2020/12/24 00:33:40;;;;;;;66.40;36.90;;;;;;;4.90;80.58;100818.08;127741;1092;104596;-73
2020/12/24 00:36:09;;;;;;;68.80;37.20;;;;;;;4.89;80.53;100824.95;127791;1091;104423;-73
2020/12/24 00:38:38;;;;;;;64.63;35.17;;;;;;;4.91;80.90;100825.05;127793;1091;104410;-73
2020/12/24 00:41:09;;;;;;;65.80;35.10;;;;;;;4.86;80.77;100829.96;127835;1092;104849;-74
2020/12/24 00:43:39;;;;;;;69.27;36.07;;;;;;;4.84;80.70;100832.46;127757;1091;104481;-73
2020/12/24 00:46:09;;;;;;;67.17;35.90;;;;;;;4.83;81.06;100832.36;127648;1091;104436;-74
2020/12/24 00:48:38;;;;;;;66.23;33.97;;;;;;;4.85;80.86;100818.67;127795;1091;104462;-73
2020/12/24 00:51:07;;;;;;;64.97;32.93;;;;;;;4.88;81.01;100817.98;127765;1091;104427;-74
2020/12/24 00:53:36;;;;;;;61.83;32.47;;;;;;;4.93;81.06;100816.55;127784;1092;104462;-75
2020/12/24 00:56:07;;;;;;;63.27;31.63;;;;;;;4.97;80.87;100815.04;127735;1092;104439;-73
2020/12/24 00:58:37;;;;;;;61.67;32.30;;;;;;;5.01;81.15;100819.64;127749;1092;104539;-74
2020/12/24 01:01:07;;;;;;;62.70;33.57;;;;;;;5.02;80.96;100819.73;127816;1091;104859;-73
2020/12/24 01:03:37;;;;;;;69.03;34.97;;;;;;;4.99;81.03;100816.06;127726;1092;104404;-74
2020/12/24 01:06:06;;;;;;;67.67;34.23;;;;;;;4.95;80.86;100814.05;127772;1091;104417;-75
2020/12/24 01:08:35;;;;;;;69.43;36.10;;;;;;;4.93;80.97;100816.55;127753;1091;104417;-75
2020/12/24 01:11:05;;;;;;;67.27;35.00;;;;;;;4.94;80.74;100805.36;127791;1092;104413;-74
2020/12/24 01:13:37;;;;;;;69.23;35.27;;;;;;;4.97;81.06;100807.23;127821;1091;104426;-75
2020/12/24 01:16:08;;;;;;;65.33;33.17;;;;;;;5.00;80.87;100803.16;127826;1092;104410;-74
2020/12/24 01:18:38;;;;;;;64.37;34.17;;;;;;;5.03;81.34;100795.54;127811;1091;104910;-74
2020/12/24 01:21:09;;;;;;;62.40;34.30;;;;;;;5.07;81.11;100803.54;127802;1091;104411;-74
2020/12/24 01:23:38;;;;;;;66.47;36.77;;;;;;;5.09;81.26;100801.92;127763;1091;104445;-74
2020/12/24 01:26:08;;;;;;;71.20;38.10;;;;;;;5.08;80.73;100795.83;127799;1091;104474;-75
2020/12/24 01:28:38;;;;;;;71.33;37.30;;;;;;;5.07;80.99;100807.02;127762;1092;104410;-75
2020/12/24 01:31:08;;;;;;;68.13;35.43;;;;;;;5.06;81.44;100797.41;127796;1091;104417;-73
2020/12/24 01:33:37;;;;;;;71.13;33.90;;;;;;;5.05;81.10;100785.23;127792;1092;104532;-73
2020/12/24 01:36:06;;;;;;;68.77;34.30;;;;;;;5.07;81.16;100791.42;127744;1091;104587;-74
2020/12/24 01:38:35;;;;;;;62.50;31.10;;;;;;;5.09;81.13;100791.52;127789;1091;104416;-75
2020/12/24 01:41:09;;;;;;;63.13;30.93;;;;;;;5.12;80.82;100789.11;127754;1091;104422;-73
2020/12/24 01:43:39;;;;;;;60.27;31.73;;;;;;;5.15;80.96;100784.98;127849;1091;104407;-73
2020/12/24 01:46:08;;;;;;;66.03;34.07;;;;;;;5.18;81.29;100781.68;127824;1091;103357;-73
2020/12/24 01:48:36;;;;;;;65.00;34.10;;;;;;;5.20;81.37;100783.59;127797;1092;104477;-73
2020/12/24 01:51:06;;;;;;;67.17;33.37;;;;;;;5.20;81.31;100780.06;127800;1091;104423;-73
2020/12/24 01:53:35;;;;;;;66.53;34.37;;;;;;;5.19;81.27;100779.17;127802;1091;104856;-73
2020/12/24 01:56:04;;;;;;;62.90;33.03;;;;;;;5.19;81.19;100780.89;127784;1091;104501;-73
2020/12/24 01:58:33;;;;;;;63.03;31.07;;;;;;;5.20;81.39;100786.19;127804;1092;104462;-73
2020/12/24 02:01:02;;;;;;;60.83;30.30;;;;;;;5.22;80.95;100788.88;127753;1091;104507;-73
2020/12/24 02:03:31;;;;;;;61.83;31.40;;;;;;;5.21;81.26;100790.56;127719;1092;104436;-75
2020/12/24 02:06:00;;;;;;;61.50;32.07;;;;;;;5.20;80.83;100786.19;127569;1092;104497;-75
2020/12/24 02:08:29;;;;;;;66.67;33.90;;;;;;;5.19;81.09;100784.38;127724;1091;104477;-74
2020/12/24 02:10:58;;;;;;;62.53;30.83;;;;;;;5.19;80.92;100775.69;127767;1091;104403;-75
2020/12/24 02:13:27;;;;;;;61.23;31.40;;;;;;;5.15;81.25;100784.09;127729;1092;104404;-73
2020/12/24 02:15:56;;;;;;;63.87;32.37;;;;;;;5.15;81.21;100786.70;127721;1091;104541;-74
2020/12/24 02:18:26;;;;;;;60.57;30.33;;;;;;;5.16;81.36;100780.70;127771;1092;104545;-73
2020/12/24 02:20:58;;;;;;;57.03;30.57;;;;;;;5.21;81.10;100781.88;127341;1091;104429;-73
2020/12/24 02:23:29;;;;;;;61.47;31.70;;;;;;;5.24;81.47;100770.77;127714;1091;104542;-73
2020/12/24 02:25:58;;;;;;;62.23;31.07;;;;;;;5.24;81.20;100776.86;127770;1091;104475;-73
2020/12/24 02:28:27;;;;;;;61.17;31.17;;;;;;;5.23;81.12;100775.05;127805;1091;104478;-73
2020/12/24 02:30:57;;;;;;;63.67;32.50;;;;;;;5.26;81.42;100775.23;127782;1092;104401;-73
2020/12/24 02:33:27;;;;;;;59.70;30.10;;;;;;;5.22;81.06;100774.16;127803;1091;104430;-76
2020/12/24 02:35:56;;;;;;;58.57;29.53;;;;;;;5.22;81.34;100774.16;127763;1091;104532;-73
2020/12/24 02:38:25;;;;;;;60.57;29.57;;;;;;;5.22;81.26;100778.48;127757;1093;104586;-74
2020/12/24 02:40:56;;;;;;;59.43;29.50;;;;;;;5.22;81.16;100781.08;127736;1092;104407;-73
2020/12/24 02:43:25;;;;;;;61.47;29.63;;;;;;;5.22;81.20;100786.28;127795;1091;104456;-73
2020/12/24 02:45:54;;;;;;;62.03;30.13;;;;;;;5.20;81.23;100786.19;127791;1092;104436;-74
2020/12/24 02:48:23;;;;;;;60.50;30.33;;;;;;;5.21;80.94;100780.16;127815;1092;104407;-74
2020/12/24 02:50:53;;;;;;;62.77;31.47;;;;;;;5.20;80.87;100770.58;127778;1092;104414;-74
2020/12/24 02:53:22;;;;;;;59.63;29.33;;;;;;;5.19;81.21;100767.88;127759;1091;104410;-74
2020/12/24 02:55:51;;;;;;;62.93;30.40;;;;;;;5.13;81.37;100762.30;127797;1091;104455;-74
2020/12/24 02:58:20;;;;;;;67.97;31.23;;;;;;;5.11;81.11;100762.20;127801;1092;104411;-74
2020/12/24 03:00:48;;;;;;;65.63;30.77;;;;;;;5.12;81.43;100763.09;127691;1092;104522;-76
2020/12/24 03:03:20;;;;;;;66.07;29.53;;;;;;;5.10;81.48;100764.71;127744;1091;104416;-75
2020/12/24 03:05:49;;;;;;;70.53;33.23;;;;;;;5.08;81.25;100764.61;127793;1091;104410;-76
2020/12/24 03:08:18;;;;;;;72.77;32.90;;;;;;;5.09;81.20;100770.70;127785;1092;104435;-74
2020/12/24 03:10:48;;;;;;;71.23;32.53;;;;;;;5.09;81.20;100771.59;127801;1091;104598;-74
2020/12/24 03:13:17;;;;;;;72.63;32.70;;;;;;;5.06;81.14;100760.11;127780;1093;104413;-74
2020/12/24 03:15:46;;;;;;;75.93;34.97;;;;;;;5.08;81.61;100758.48;127789;1092;104404;-75
2020/12/24 03:18:16;;;;;;;72.20;35.17;;;;;;;5.10;81.34;100757.80;127781;1092;104474;-73
2020/12/24 03:20:45;;;;;;;81.00;35.00;;;;;;;5.08;81.49;100764.61;127733;1091;104601;-73
2020/12/24 03:23:14;;;;;;;83.23;37.73;;;;;;;5.07;81.53;100761.92;127789;1092;104420;-74
2020/12/24 03:25:43;;;;;;;82.57;37.57;;;;;;;5.07;81.61;100756.72;127778;1091;104410;-73
2020/12/24 03:28:12;;;;;;;80.70;32.80;;;;;;;5.04;81.55;100747.01;127751;1092;104462;-74
2020/12/24 03:30:41;;;;;;;76.87;33.97;;;;;;;5.00;81.47;100747.61;127770;1091;104487;-75
2020/12/24 03:33:11;;;;;;;84.83;36.93;;;;;;;4.99;81.46;100744.12;127756;1092;104922;-74
2020/12/24 03:35:47;;;;;;;84.40;36.93;;;;;;;4.98;81.45;100741.43;127727;1092;104436;-74
2020/12/24 03:38:19;;;;;;;84.17;34.63;;;;;;;4.98;81.22;100737.11;127825;1092;104417;-74
2020/12/24 03:40:49;;;;;;;82.73;34.97;;;;;;;5.00;81.43;100743.33;127743;1092;104439;-74
2020/12/24 03:43:19;;;;;;;80.70;35.40;;;;;;;5.04;81.67;100736.61;127809;1092;104413;-74
2020/12/24 03:45:48;;;;;;;80.53;34.90;;;;;;;5.10;81.80;100741.30;127752;1092;104407;-73
2020/12/24 03:48:16;;;;;;;84.93;35.33;;;;;;;5.10;81.69;100742.19;127679;1092;104437;-74
2020/12/24 03:50:48;;;;;;;79.53;34.47;;;;;;;5.14;81.78;100744.19;127695;1091;104519;-75
2020/12/24 03:53:16;;;;;;;82.07;35.90;;;;;;;5.20;81.35;100728.03;127752;1091;104537;-73
2020/12/24 03:55:46;;;;;;;80.73;35.00;;;;;;;5.25;81.42;100730.91;127779;1092;104410;-74
2020/12/24 03:58:15;;;;;;;77.23;34.13;;;;;;;5.28;81.87;100726.78;127782;1091;104413;-73
2020/12/24 04:00:44;;;;;;;81.17;36.20;;;;;;;5.30;81.40;100722.59;127788;1091;104472;-75
2020/12/24 04:03:12;;;;;;;83.10;37.20;;;;;;;5.30;81.47;100724.27;127770;1092;104407;-73
2020/12/24 04:05:41;;;;;;;84.23;35.73;;;;;;;5.26;81.31;100725.80;127748;1092;104462;-75
2020/12/24 04:08:11;;;;;;;80.10;34.90;;;;;;;5.20;81.52;100728.03;127749;1092;104414;-73
2020/12/24 04:10:40;;;;;;;90.07;35.93;;;;;;;5.17;81.32;100733.97;127581;1093;104414;-75
2020/12/24 04:13:08;;;;;;;85.73;36.17;;;;;;;5.13;81.46;100724.16;127675;1092;104475;-74
2020/12/24 04:15:37;;;;;;;83.23;34.23;;;;;;;5.12;81.61;100734.48;127769;1093;104556;-74
2020/12/24 04:18:07;;;;;;;83.80;36.50;;;;;;;5.08;81.58;100730.80;127754;1091;104544;-75
2020/12/24 04:20:36;;;;;;;84.00;34.97;;;;;;;5.11;81.54;100738.80;127792;1091;104602;-74
2020/12/24 04:23:05;;;;;;;82.83;34.03;;;;;;;5.13;81.31;100731.97;127790;1092;104378;-73
2020/12/24 04:25:34;;;;;;;79.50;32.77;;;;;;;5.12;81.30;100739.68;127801;1092;104414;-74
2020/12/24 04:28:03;;;;;;;79.30;34.17;;;;;;;5.08;81.50;100737.69;127796;1091;104538;-75
2020/12/24 04:30:31;;;;;;;77.30;33.60;;;;;;;5.05;81.18;100743.62;127732;1091;104538;-74
2020/12/24 04:33:00;;;;;;;73.90;31.80;;;;;;;5.03;81.69;100738.32;127750;1092;104477;-75
2020/12/24 04:35:29;;;;;;;75.90;33.40;;;;;;;5.06;81.71;100734.09;127664;1091;104407;-76
2020/12/24 04:37:58;;;;;;;72.60;32.97;;;;;;;5.03;81.33;100740.92;127731;1092;104407;-76
2020/12/24 04:40:27;;;;;;;81.53;36.40;;;;;;;5.03;81.28;100727.91;127713;1092;104381;-75
2020/12/24 04:42:59;;;;;;;72.20;32.23;;;;;;;5.07;81.82;100717.70;127779;1091;104935;-75
2020/12/24 04:45:28;;;;;;;80.93;33.97;;;;;;;5.08;81.55;100709.07;127797;1091;104599;-75
2020/12/24 04:47:58;;;;;;;80.47;34.80;;;;;;;5.12;81.72;100705.86;127700;1092;104529;-78
2020/12/24 04:50:29;;;;;;;82.83;34.43;;;;;;;5.12;81.41;100714.55;127674;1091;104401;-74
2020/12/24 04:52:58;;;;;;;75.40;33.37;;;;;;;5.15;81.58;100703.45;127602;1091;104413;-73
2020/12/24 04:55:27;;;;;;;72.97;32.37;;;;;;;5.15;81.80;100706.05;127616;1091;104427;-74
2020/12/24 04:57:59;;;;;;;73.50;33.10;;;;;;;5.17;81.75;100696.62;127786;1092;104417;-72
2020/12/24 05:00:29;;;;;;;77.90;33.17;;;;;;;5.17;81.65;100696.62;127805;1092;104413;-72
2020/12/24 05:03:09;;;;;;;77.90;33.63;;;;;;;5.15;81.81;100693.05;127791;1092;104429;-74
2020/12/24 05:05:39;;;;;;;75.80;33.00;;;;;;;5.14;81.66;100696.44;127774;1091;104551;-73
2020/12/24 05:08:09;;;;;;;78.23;34.83;;;;;;;5.11;81.68;100691.97;127763;1091;104599;-73
2020/12/24 05:10:39;;;;;;;78.03;34.43;;;;;;;5.11;81.44;100693.65;127793;1091;104407;-73
2020/12/24 05:13:18;;;;;;;71.67;33.07;;;;;;;5.08;81.63;100696.06;127777;1091;104402;-73
2020/12/24 05:15:47;;;;;;;73.17;32.80;;;;;;;5.07;81.60;100689.97;127722;1092;104909;-73
2020/12/24 05:18:18;;;;;;;77.90;34.47;;;;;;;5.08;81.56;100689.19;127667;1092;104865;-72
2020/12/24 05:20:47;;;;;;;77.80;34.17;;;;;;;5.10;81.64;100678.88;127758;1092;104714;-72
2020/12/24 05:23:19;;;;;;;72.90;33.17;;;;;;;5.11;82.00;100686.77;127757;1092;104433;-72
2020/12/24 05:25:49;;;;;;;80.03;34.87;;;;;;;5.13;81.84;100684.26;127560;1091;104420;-73
2020/12/24 05:28:22;;;;;;;71.03;30.67;;;;;;;5.12;81.59;100692.86;127698;1092;104471;-75
2020/12/24 05:30:52;;;;;;;77.83;34.33;;;;;;;5.07;81.71;100682.17;127717;1091;104411;-75
2020/12/24 05:33:32;;;;;;;78.83;36.90;;;;;;;5.08;81.49;100680.45;127506;1092;104587;-75
2020/12/24 05:36:16;;;;;;;71.47;34.30;;;;;;;5.10;81.51;100686.67;127575;1092;104407;-74
2020/12/24 05:38:45;;;;;;;73.72;33.30;;;;;;;5.11;81.68;100691.05;127525;1091;104442;-73
2020/12/24 05:41:30;;;;;;;75.53;34.10;;;;;;;5.10;81.90;100689.28;127508;1093;104397;-77
2020/12/24 05:44:01;;;;;;;77.80;34.13;;;;;;;5.06;81.62;100695.09;127480;1092;104452;-78
2020/12/24 05:46:43;;;;;;;74.97;35.10;;;;;;;5.09;81.90;100695.27;127500;1092;104417;-74
2020/12/24 05:49:15;;;;;;;72.37;34.93;;;;;;;5.12;81.71;100698.06;127492;1091;104604;-76
2020/12/24 05:51:48;;;;;;;76.10;34.27;;;;;;;5.16;82.13;100693.13;127484;1092;104405;-74
2020/12/24 05:54:18;;;;;;;72.00;32.80;;;;;;;5.17;81.61;100692.34;127492;1091;104504;-76
2020/12/24 05:56:48;;;;;;;66.23;32.10;;;;;;;5.18;81.56;100695.83;127518;1092;104459;-77
2020/12/24 05:59:19;;;;;;;71.50;32.47;;;;;;;5.17;81.85;100686.22;127386;1092;104437;-77
2020/12/24 06:02:04;;;;;;;76.23;33.33;;;;;;;5.20;82.00;100689.00;127450;1092;104432;-75
2020/12/24 06:04:48;;;;;;;69.83;31.80;;;;;;;5.25;81.52;100697.09;128205;1092;104506;-75
2020/12/24 06:07:32;;;;;;;63.93;28.33;;;;;;;5.27;81.59;100688.58;127549;1092;104606;-72
2020/12/24 06:10:11;;;;;;;68.00;29.60;;;;;;;5.23;81.62;100702.20;127631;1091;104627;-73
2020/12/24 06:12:52;;;;;;;64.70;31.03;;;;;;;5.23;81.95;100707.41;127542;1092;104401;-72
2020/12/24 06:15:24;;;;;;;66.30;28.60;;;;;;;5.20;81.82;100702.02;127651;1091;104424;-73
2020/12/24 06:17:55;;;;;;;64.23;28.97;;;;;;;5.16;81.73;100700.94;127500;1092;104474;-73
2020/12/24 06:20:31;;;;;;;62.10;28.83;;;;;;;5.14;81.29;100706.84;127469;1092;104436;-74
2020/12/24 06:23:00;;;;;;;65.13;28.97;;;;;;;5.12;81.55;100698.95;127378;1092;104597;-76
2020/12/24 06:25:29;;;;;;;66.80;29.13;;;;;;;5.16;81.92;100690.53;127392;1091;104500;-76
2020/12/24 06:28:02;;;;;;;63.50;30.30;;;;;;;5.17;81.65;100687.14;127346;1092;105025;-75
2020/12/24 06:30:35;;;;;;;64.58;28.00;;;;;;;5.19;81.57;100682.03;127450;1092;104426;-78
2020/12/24 06:33:10;;;;;;;63.93;28.30;;;;;;;5.16;81.92;100679.24;127326;1091;104519;-78
2020/12/24 06:35:41;;;;;;;67.20;31.20;;;;;;;5.17;81.79;100670.61;127170;1092;104653;-77
2020/12/24 06:38:41;;;;;;;63.83;28.47;;;;;;;5.22;81.84;100669.20;127295;1092;104570;-77
2020/12/24 06:41:24;;;;;;;67.47;30.47;;;;;;;5.24;81.54;100662.38;126979;1093;104406;-73
2020/12/24 06:43:53;;;;;;;69.40;32.00;;;;;;;5.30;82.01;100662.75;127506;1092;104435;-75
2020/12/24 06:46:23;;;;;;;65.40;30.53;;;;;;;5.36;81.77;100659.58;127304;1092;104436;-76
2020/12/24 06:49:03;;;;;;;62.00;30.70;;;;;;;5.38;81.63;100651.08;127298;1091;104430;-77
2020/12/24 06:51:51;;;;;;;64.27;29.83;;;;;;;5.43;81.52;100655.66;128872;1092;102514;-79
2020/12/24 06:54:21;;;;;;;65.17;31.37;;;;;;;5.47;81.47;100655.02;128568;1094;102178;-76
2020/12/24 06:57:14;;;;;;;65.63;31.00;;;;;;;5.49;81.37;100661.23;128526;1092;104430;-75
2020/12/24 06:59:46;;;;;;;71.40;31.47;;;;;;;5.51;81.26;100663.09;127369;1091;104548;-78
2020/12/24 07:02:25;;;;;;;66.13;31.20;;;;;;;5.55;81.77;100665.08;127393;1092;104583;-76
2020/12/24 07:04:54;;;;;;;65.10;29.10;;;;;;;5.56;81.64;100664.28;127368;1093;104439;-77
2020/12/24 07:07:46;;;;;;;64.30;31.65;;;;;;;5.57;81.63;100659.96;127371;1091;104442;-78
2020/12/24 07:10:43;;;;;;;68.40;30.93;;;;;;;5.58;81.39;100657.45;127265;1092;104532;-75
2020/12/24 07:13:32;;;;;;;62.13;29.17;;;;;;;5.62;81.60;100652.42;127372;1092;104555;-75
2020/12/24 07:16:01;;;;;;;64.17;30.13;;;;;;;5.66;81.71;100647.48;127511;1092;104518;-74
2020/12/24 07:18:32;;;;;;;64.73;29.53;;;;;;;5.70;81.77;100638.13;127508;1092;104541;-74
2020/12/24 07:21:07;;;;;;;63.63;30.07;;;;;;;5.73;81.67;100641.83;127420;1092;104596;-75
2020/12/24 07:23:39;;;;;;;65.37;30.37;;;;;;;5.81;81.84;100649.16;127398;1093;104407;-77
2020/12/24 07:26:11;;;;;;;62.47;29.67;;;;;;;5.84;81.26;100641.52;127276;1091;104442;-77
2020/12/24 07:28:41;;;;;;;64.07;30.60;;;;;;;5.86;81.32;100656.44;127459;1091;104420;-76
2020/12/24 07:31:11;;;;;;;58.27;28.40;;;;;;;5.87;81.31;100653.00;127360;1092;104432;-75
2020/12/24 07:33:46;;;;;;;60.73;29.13;;;;;;;5.88;81.63;100654.80;127416;1092;104558;-77
2020/12/24 07:36:15;;;;;;;53.10;26.23;;;;;;;5.92;81.52;100655.87;127395;1092;104501;-75
2020/12/24 07:38:47;;;;;;;57.73;28.47;;;;;;;5.97;81.60;100657.09;127407;1091;104407;-75
2020/12/24 07:41:18;;;;;;;59.95;28.55;;;;;;;6.07;81.71;100664.59;127485;1091;104574;-76
2020/12/24 07:43:48;;;;;;;56.37;27.67;;;;;;;6.14;81.67;100657.12;127560;1092;104414;-74
2020/12/24 07:46:22;;;;;;;59.17;28.83;;;;;;;6.15;81.51;100670.23;127465;1091;104567;-77
2020/12/24 07:49:03;;;;;;;54.80;27.70;;;;;;;6.18;81.49;100667.80;127356;1091;104408;-78
2020/12/24 07:51:32;;;;;;;58.40;30.07;;;;;;;6.19;81.42;100667.00;127465;1091;104618;-76
2020/12/24 07:54:12;;;;;;;52.27;26.20;;;;;;;6.22;81.59;100671.49;127591;1091;104563;-76
2020/12/24 07:56:45;;;;;;;56.87;27.73;;;;;;;6.22;81.45;100669.77;127509;1092;104472;-77
2020/12/24 07:59:17;;;;;;;50.63;24.83;;;;;;;6.25;81.25;100671.67;127485;1091;104430;-76
2020/12/24 08:01:46;;;;;;;53.77;26.50;;;;;;;6.20;81.25;100678.30;127551;1092;104407;-76
2020/12/24 08:04:21;;;;;;;54.67;26.87;;;;;;;6.21;81.58;100682.72;127296;1091;104459;-76
2020/12/24 08:06:53;;;;;;;51.93;24.43;;;;;;;6.25;81.41;100682.98;127464;1091;104416;-75
2020/12/24 08:09:22;;;;;;;51.40;25.70;;;;;;;6.22;81.09;100681.92;127362;1092;104660;-75
2020/12/24 08:11:56;;;;;;;50.90;24.53;;;;;;;6.21;81.12;100688.81;127402;1092;104433;-76
2020/12/24 08:14:26;;;;;;;50.70;25.00;;;;;;;6.19;81.15;100686.95;127265;1092;104436;-76
2020/12/24 08:17:18;;;;;;;53.77;25.40;;;;;;;6.20;81.39;100678.30;127450;1092;104474;-75
2020/12/24 08:19:54;;;;;;;45.57;22.07;;;;;;;6.23;81.38;100673.27;127415;1091;104410;-77
2020/12/24 08:22:44;;;;;;;52.03;26.40;;;;;;;6.25;81.18;100666.45;128878;1092;102705;-76
2020/12/24 08:25:15;;;;;;;54.07;25.73;;;;;;;6.26;81.40;100669.14;128880;1092;102437;-77
2020/12/24 08:27:45;;;;;;;51.50;24.23;;;;;;;6.32;81.41;100658.14;127627;1092;104436;-75
2020/12/24 08:30:16;;;;;;;57.40;26.77;;;;;;;6.28;81.14;100659.69;127349;1092;104538;-75
2020/12/24 08:32:49;;;;;;;51.07;25.07;;;;;;;6.25;80.86;100661.24;127351;1092;104459;-78
2020/12/24 08:35:18;;;;;;;52.43;26.27;;;;;;;6.21;81.25;100656.66;127645;1092;104436;-79
2020/12/24 08:37:48;;;;;;;51.30;25.37;;;;;;;6.20;81.37;100650.56;127318;1092;104433;-77
2020/12/24 08:40:23;;;;;;;48.10;22.27;;;;;;;6.21;81.32;100654.05;127440;1091;104514;-76
2020/12/24 08:42:59;;;;;;;42.70;19.97;;;;;;;6.20;81.42;100645.35;128848;1092;102496;-75
2020/12/24 08:45:29;;;;;;;50.48;23.27;;;;;;;6.20;81.54;100647.04;128660;1092;102375;-75
2020/12/24 08:47:59;;;;;;;49.17;21.80;;;;;;;6.18;81.10;100633.03;127462;1092;104430;-74
2020/12/24 08:50:33;;;;;;;48.00;20.90;;;;;;;6.16;80.93;100632.06;127596;1092;104541;-73
2020/12/24 08:53:05;;;;;;;;;;;;;;;6.17;81.09;100636.44;127832;1091;104436;-74
2020/12/24 08:55:35;;;;;;;50.30;22.97;;;;;;;6.18;81.63;100633.92;127620;1091;104504;-76
2020/12/24 08:58:10;;;;;;;47.33;20.87;;;;;;;6.22;81.40;100619.38;127928;1093;103095;-75
2020/12/24 09:00:39;;;;;;;55.27;23.67;;;;;;;6.25;81.28;100607.41;127582;1092;104439;-77
2020/12/24 09:03:24;;;;;;;43.97;19.30;;;;;;;6.28;81.39;100596.27;127717;1092;104414;-77
2020/12/24 09:05:56;;;;;;;48.73;20.27;;;;;;;6.23;81.11;100584.67;127658;1091;104417;-76
2020/12/24 09:08:26;;;;;;;45.00;20.13;;;;;;;6.15;81.14;100588.58;127467;1092;104446;-80
2020/12/24 09:10:56;;;;;;;45.80;21.63;;;;;;;6.16;81.45;100587.77;127194;1093;104474;-77
2020/12/24 09:13:26;;;;;;;50.43;23.67;;;;;;;6.21;81.43;100586.30;127427;1092;104485;-78
2020/12/24 09:15:56;;;;;;;43.35;19.30;;;;;;;6.28;81.40;100604.08;127375;1092;104500;-79
2020/12/24 09:18:25;;;;;;;40.07;18.03;;;;;;;6.29;81.39;100605.85;127347;1092;104542;-75
2020/12/24 09:20:54;;;;;;;48.30;21.70;;;;;;;6.27;81.36;100595.34;127483;1091;104583;-74
2020/12/24 09:23:24;;;;;;;52.63;23.43;;;;;;;6.24;81.43;100607.32;127491;1092;104535;-75
2020/12/24 09:25:56;;;;;;;50.37;22.83;;;;;;;6.25;81.47;100601.31;127049;1092;104517;-76
2020/12/24 09:28:26;;;;;;;45.60;21.13;;;;;;;6.28;81.46;100598.87;127605;1091;104423;-75
2020/12/24 09:31:00;;;;;;;50.97;23.43;;;;;;;6.22;81.08;100594.20;127976;1092;104547;-74
2020/12/24 09:33:30;;;;;;;43.97;17.23;;;;;;;6.17;81.31;100595.67;127536;1091;104449;-75
2020/12/24 09:36:00;;;;;;;51.77;22.63;;;;;;;6.17;81.60;100597.36;127628;1091;104499;-74
2020/12/24 09:38:29;;;;;;;53.13;22.27;;;;;;;6.20;81.41;100590.63;127585;1092;104414;-75
2020/12/24 09:41:01;;;;;;;54.50;23.20;;;;;;;6.21;81.32;100579.37;127623;1091;104626;-72
2020/12/24 09:43:30;;;;;;;52.40;21.80;;;;;;;6.24;81.69;100569.12;127570;1092;104882;-73
2020/12/24 09:46:00;;;;;;;44.37;19.43;;;;;;;6.29;81.68;100564.16;127339;1092;104410;-74
2020/12/24 09:48:29;;;;;;;48.90;21.90;;;;;;;6.36;81.49;100561.08;127418;1092;104436;-77
2020/12/24 09:51:00;;;;;;;50.30;22.13;;;;;;;6.45;82.00;100563.25;127318;1092;104528;-76
2020/12/24 09:53:30;;;;;;;49.40;22.53;;;;;;;6.53;81.90;100555.84;127631;1091;104547;-75
2020/12/24 09:55:59;;;;;;;49.97;23.50;;;;;;;6.53;81.72;100555.84;127499;1091;104416;-74
2020/12/24 09:58:28;;;;;;;50.27;22.47;;;;;;;6.54;81.73;100557.64;127431;1092;104596;-75
2020/12/24 10:00:57;;;;;;;49.60;21.17;;;;;;;6.54;81.74;100555.92;127396;1092;104455;-74
2020/12/24 10:03:26;;;;;;;51.23;22.33;;;;;;;6.51;81.79;100550.55;127273;1092;104560;-74
2020/12/24 10:05:55;;;;;;;47.43;22.03;;;;;;;6.54;81.42;100549.83;127414;1092;104514;-78
2020/12/24 10:08:24;;;;;;;50.20;21.80;;;;;;;6.51;81.47;100544.45;127575;1091;104474;-75
2020/12/24 10:10:54;;;;;;;48.20;20.93;;;;;;;6.51;81.52;100550.55;127094;1093;104823;-77
2020/12/24 10:13:23;;;;;;;33.83;14.57;;;;;;;6.53;81.88;100542.80;127465;1091;104464;-76
2020/12/24 10:15:53;;;;;;;38.10;16.23;;;;;;;6.51;81.75;100539.23;127379;1092;104414;-76
2020/12/24 10:18:23;;;;;;;45.23;20.27;;;;;;;6.52;81.71;100528.00;127447;1092;104442;-76
2020/12/24 10:20:52;;;;;;;44.05;20.30;;;;;;;6.59;81.69;100523.19;128534;1092;104455;-76
2020/12/24 10:23:22;;;;;;;44.40;20.05;;;;;;;6.69;81.87;100516.73;127406;1091;104436;-75
2020/12/24 10:25:52;;;;;;;43.27;19.53;;;;;;;6.76;81.68;100510.11;127398;1092;104404;-76
2020/12/24 10:28:22;;;;;;;47.27;20.70;;;;;;;6.81;81.59;100503.44;127042;1092;104455;-77
2020/12/24 10:30:55;;;;;;;42.45;19.30;;;;;;;6.86;81.49;100496.73;126974;1094;104586;-77
2020/12/24 10:33:24;;;;;;;50.13;22.47;;;;;;;6.89;81.31;100498.57;126737;1094;104594;-79
2020/12/24 10:35:53;;;;;;;46.87;20.60;;;;;;;6.91;81.49;100504.78;126704;1094;104439;-79
2020/12/24 10:38:23;;;;;;;45.50;19.90;;;;;;;6.93;81.20;100503.14;126754;1094;104571;-77
2020/12/24 10:40:52;;;;;;;50.17;21.57;;;;;;;6.89;81.17;100498.57;126738;1094;104691;-75
2020/12/24 10:43:23;;;;;;;50.13;21.17;;;;;;;6.84;81.53;100488.83;126787;1094;104606;-75
2020/12/24 10:45:57;;;;;;;47.17;19.43;;;;;;;6.83;81.56;100484.41;127004;1093;104474;-75
2020/12/24 10:48:27;;;;;;;52.97;21.63;;;;;;;6.84;81.54;100483.61;127008;1093;104615;-76
2020/12/24 10:50:59;;;;;;;38.50;17.00;;;;;;;6.89;81.47;100483.84;127003;1094;104541;-76
2020/12/24 10:53:28;;;;;;;42.40;18.83;;;;;;;6.87;81.46;100482.84;126758;1094;104502;-76
2020/12/24 10:55:57;;;;;;;48.13;20.43;;;;;;;6.88;81.64;100481.16;127023;1094;104553;-79
2020/12/24 10:58:26;;;;;;;43.27;18.40;;;;;;;6.89;81.48;100477.70;126990;1092;104485;-76
2020/12/24 11:00:55;;;;;;;47.97;19.80;;;;;;;6.88;81.77;100475.94;127317;1093;104401;-76
2020/12/24 11:03:27;;;;;;;46.13;18.97;;;;;;;6.89;81.81;100467.27;127249;1091;104574;-78
2020/12/24 11:05:59;;;;;;;40.07;16.63;;;;;;;6.89;81.58;100455.15;127252;1092;104445;-75
2020/12/24 11:08:31;;;;;;;34.53;13.27;;;;;;;6.87;81.33;100442.84;127576;1092;104433;-77
2020/12/24 11:11:03;;;;;;;45.77;19.40;;;;;;;6.79;81.40;100443.37;127170;1091;104480;-76
2020/12/24 11:13:34;;;;;;;37.93;16.37;;;;;;;6.81;81.62;100436.51;127163;1091;104516;-74
2020/12/24 11:16:03;;;;;;;40.83;17.50;;;;;;;6.82;81.75;100440.00;127479;1092;104801;-78
2020/12/24 11:18:33;;;;;;;47.03;19.57;;;;;;;6.81;81.53;100441.72;127079;1092;104688;-79
2020/12/24 11:21:03;;;;;;;42.60;19.17;;;;;;;6.84;81.61;100436.66;126796;1093;104621;-77